createdAt,value
2018-10-11T00:01:36.913Z,13.00
2018-10-11T00:04:04.343Z,11.30
2018-10-11T00:06:31.856Z,10.60
2018-10-11T00:08:59.436Z,11.37
2018-10-11T00:11:27.270Z,12.70
2018-10-11T00:13:54.686Z,19.20
2018-10-11T00:16:22.282Z,16.07
2018-10-11T00:18:50.196Z,18.37
2018-10-11T00:21:22.471Z,17.80
2018-10-11T00:23:49.820Z,19.23
2018-10-11T00:26:17.252Z,24.57
2018-10-11T00:28:44.584Z,23.63
2018-10-11T00:31:12.032Z,27.07
2018-10-11T00:33:39.536Z,25.13
2018-10-11T00:36:06.898Z,30.77
2018-10-11T00:38:34.327Z,30.40
2018-10-11T00:41:01.727Z,31.73
2018-10-11T00:43:29.105Z,29.83
2018-10-11T00:45:56.489Z,27.03
2018-10-11T00:48:23.872Z,28.70
2018-10-11T00:50:51.299Z,31.33
2018-10-11T00:53:18.810Z,28.43
2018-10-11T00:55:46.220Z,32.50
2018-10-11T00:58:13.628Z,32.10
2018-10-11T01:00:41.120Z,30.80
2018-10-11T01:03:08.526Z,32.73
2018-10-11T01:05:35.959Z,32.73
2018-10-11T01:08:03.470Z,35.93
2018-10-11T01:10:30.833Z,38.40
2018-10-11T01:12:58.224Z,33.70
2018-10-11T01:15:25.667Z,33.17
2018-10-11T01:17:56.590Z,30.10
2018-10-11T01:20:24.048Z,31.43
2018-10-11T01:22:51.419Z,32.60
2018-10-11T01:25:18.908Z,29.77
2018-10-11T01:27:46.764Z,27.77
2018-10-11T01:30:14.160Z,30.17
2018-10-11T01:32:41.488Z,29.00
2018-10-11T01:35:09.007Z,26.30
2018-10-11T01:37:36.416Z,30.90
2018-10-11T01:40:04.131Z,31.73
2018-10-11T01:42:31.908Z,31.87
2018-10-11T01:44:59.273Z,29.10
2018-10-11T01:47:26.819Z,28.37
2018-10-11T01:49:54.649Z,26.07
2018-10-11T01:52:22.049Z,28.57
2018-10-11T01:54:49.399Z,28.57
2018-10-11T01:57:16.769Z,31.60
2018-10-11T01:59:44.172Z,27.80
2018-10-11T02:02:11.645Z,24.63
2018-10-11T02:04:39.044Z,29.60
2018-10-11T02:07:06.804Z,26.67
2018-10-11T02:09:34.264Z,27.90
2018-10-11T02:12:01.756Z,27.87
2018-10-11T02:14:29.113Z,30.63
2018-10-11T02:16:56.558Z,29.90
2018-10-11T02:19:24.022Z,27.93
2018-10-11T02:21:51.548Z,31.13
2018-10-11T02:24:18.899Z,30.27
2018-10-11T02:26:46.250Z,32.03
2018-10-11T02:29:13.635Z,32.30
2018-10-11T02:31:40.972Z,30.87
2018-10-11T02:34:08.300Z,32.80
2018-10-11T02:36:35.700Z,34.40
2018-10-11T02:39:03.164Z,35.20
2018-10-11T02:41:30.678Z,33.00
2018-10-11T02:43:58.036Z,35.67
2018-10-11T02:46:25.411Z,38.30
2018-10-11T02:48:52.792Z,38.20
2018-10-11T02:51:20.178Z,38.53
2018-10-11T02:53:47.587Z,44.03
2018-10-11T02:56:15.034Z,39.70
2018-10-11T02:58:47.794Z,38.13
2018-10-11T03:01:15.581Z,36.70
2018-10-11T03:03:42.997Z,33.17
2018-10-11T03:06:10.305Z,34.10
2018-10-11T03:08:37.707Z,36.00
2018-10-11T03:11:05.161Z,34.80
2018-10-11T03:13:32.643Z,35.00
2018-10-11T03:16:00.019Z,38.27
2018-10-11T03:18:27.453Z,32.40
2018-10-11T03:20:54.782Z,34.30
2018-10-11T03:23:22.172Z,35.87
2018-10-11T03:25:49.585Z,35.37
2018-10-11T03:28:17.813Z,41.27
2018-10-11T03:30:45.238Z,39.70
2018-10-11T03:33:13.636Z,38.43
2018-10-11T03:35:41.969Z,36.67
2018-10-11T03:38:09.375Z,37.07
2018-10-11T03:40:36.754Z,38.00
2018-10-11T03:43:04.200Z,39.43
2018-10-11T03:45:31.662Z,38.50
2018-10-11T03:47:59.153Z,40.47
2018-10-11T03:50:27.234Z,42.57
2018-10-11T03:58:16.129Z,48.33
2018-10-11T04:00:43.505Z,43.57
2018-10-11T04:03:11.078Z,45.77
2018-10-11T04:05:38.523Z,42.40
2018-10-11T04:08:05.973Z,45.30
2018-10-11T04:10:33.478Z,50.10
2018-10-11T04:13:00.912Z,40.10
2018-10-11T04:15:28.433Z,40.33
2018-10-11T04:17:55.796Z,48.23
2018-10-11T04:20:23.166Z,46.17
2018-10-11T04:22:50.535Z,51.30
2018-10-11T04:25:17.930Z,51.60
2018-10-11T04:27:45.291Z,39.50
2018-10-11T04:30:12.681Z,42.50
2018-10-11T04:32:39.979Z,44.83
2018-10-11T04:35:07.402Z,42.90
2018-10-11T04:37:34.912Z,42.13
2018-10-11T04:40:02.344Z,42.30
2018-10-11T04:42:29.801Z,34.40
2018-10-11T04:44:57.144Z,40.43
2018-10-11T04:47:24.825Z,32.67
2018-10-11T04:49:52.298Z,36.73
2018-10-11T04:52:19.746Z,32.53
2018-10-11T04:54:47.610Z,32.90
2018-10-11T04:57:14.933Z,34.60
2018-10-11T04:59:42.405Z,33.23
2018-10-11T05:02:09.983Z,35.43
2018-10-11T05:04:42.625Z,33.07
2018-10-11T05:07:10.133Z,32.43
2018-10-11T05:09:37.601Z,29.57
2018-10-11T05:12:06.256Z,31.77
2018-10-11T05:14:34.152Z,32.63
2018-10-11T05:17:01.630Z,30.43
2018-10-11T05:19:29.119Z,32.20
2018-10-11T05:21:57.089Z,32.80
2018-10-11T05:24:24.476Z,32.33
2018-10-11T05:26:51.882Z,31.07
2018-10-11T05:29:19.224Z,35.30
2018-10-11T05:31:46.737Z,33.80
2018-10-11T05:34:14.113Z,32.07
2018-10-11T05:36:41.525Z,36.57
2018-10-11T05:39:09.092Z,37.70
2018-10-11T05:41:36.584Z,41.23
2018-10-11T05:44:04.062Z,39.37
2018-10-11T05:46:32.488Z,36.77
2018-10-11T05:49:00.322Z,39.30
2018-10-11T05:51:28.050Z,35.23
2018-10-11T05:53:56.372Z,40.10
2018-10-11T05:56:24.397Z,38.37
2018-10-11T05:58:52.157Z,34.90
2018-10-11T06:01:19.592Z,37.67
2018-10-11T06:03:47.028Z,40.63
2018-10-11T06:06:14.650Z,36.20
2018-10-11T06:08:42.183Z,40.20
2018-10-11T06:11:09.806Z,38.30
2018-10-11T06:13:37.291Z,35.27
2018-10-11T06:16:04.727Z,39.73
2018-10-11T06:18:32.449Z,35.13
2018-10-11T06:20:59.853Z,35.40
2018-10-11T06:23:27.173Z,32.00
2018-10-11T06:25:54.536Z,33.13
2018-10-11T06:28:22.230Z,32.63
2018-10-11T06:30:49.729Z,29.47
2018-10-11T06:33:17.396Z,30.80
2018-10-11T06:35:44.971Z,28.37
2018-10-11T06:38:12.332Z,34.53
2018-10-11T06:40:39.762Z,35.20
2018-10-11T06:43:07.290Z,36.70
2018-10-11T06:45:35.270Z,33.90
2018-10-11T06:48:03.771Z,40.30
2018-10-11T06:50:31.268Z,39.37
2018-10-11T06:52:58.982Z,35.20
2018-10-11T06:55:26.332Z,36.43
2018-10-11T06:57:53.648Z,30.63
2018-10-11T07:00:21.024Z,28.87
2018-10-11T07:02:48.437Z,31.07
2018-10-11T07:05:15.886Z,26.70
2018-10-11T07:07:43.236Z,29.07
2018-10-11T07:10:10.899Z,25.80
2018-10-11T07:12:38.244Z,25.87
2018-10-11T07:15:05.661Z,28.07
2018-10-11T07:17:32.994Z,26.60
2018-10-11T07:20:00.425Z,28.60
2018-10-11T07:22:27.786Z,26.10
2018-10-11T07:24:55.141Z,25.93
2018-10-11T07:27:22.581Z,23.10
2018-10-11T07:29:49.963Z,26.53
2018-10-11T07:32:17.313Z,24.07
2018-10-11T07:34:44.688Z,29.00
2018-10-11T07:37:12.014Z,25.27
2018-10-11T07:39:39.625Z,23.30
2018-10-11T07:42:06.917Z,26.17
2018-10-11T07:44:34.306Z,24.00
2018-10-11T07:47:01.876Z,24.13
2018-10-11T07:49:29.183Z,24.80
2018-10-11T07:51:56.543Z,26.57
2018-10-11T07:54:29.390Z,24.57
2018-10-11T07:56:56.717Z,22.70
2018-10-11T07:59:24.087Z,24.27
2018-10-11T08:01:51.805Z,23.93
2018-10-11T08:04:19.077Z,22.90
2018-10-11T08:06:46.427Z,25.03
2018-10-11T08:09:13.795Z,25.13
2018-10-11T08:11:41.227Z,25.67
2018-10-11T08:14:08.559Z,26.70
2018-10-11T08:16:36.082Z,23.70
2018-10-11T08:19:03.410Z,22.63
2018-10-11T08:21:30.659Z,20.20
2018-10-11T08:23:57.985Z,24.50
2018-10-11T08:26:26.075Z,22.33
2018-10-11T08:28:53.008Z,21.37
2018-10-11T08:31:20.349Z,24.83
2018-10-11T08:33:47.730Z,24.27
2018-10-11T08:36:15.067Z,24.57
2018-10-11T08:38:42.513Z,26.30
2018-10-11T08:41:09.846Z,26.90
2018-10-11T08:43:37.317Z,26.20
2018-10-11T08:46:04.704Z,24.67
2018-10-11T08:48:32.037Z,22.53
2018-10-11T08:50:59.582Z,22.47
2018-10-11T08:53:26.941Z,20.83
2018-10-11T08:55:54.348Z,21.80
2018-10-11T08:58:21.705Z,19.77
2018-10-11T09:00:49.139Z,22.97
2018-10-11T09:03:16.603Z,22.33
2018-10-11T09:05:43.941Z,20.80
2018-10-11T09:08:11.417Z,26.03
2018-10-11T09:10:38.833Z,21.70
2018-10-11T09:13:06.286Z,22.83
2018-10-11T09:15:33.811Z,21.90
2018-10-11T09:18:01.118Z,23.27
2018-10-11T09:20:28.497Z,24.70
2018-10-11T09:22:55.859Z,27.80
2018-10-11T09:25:23.259Z,24.07
2018-10-11T09:27:50.764Z,22.20
2018-10-11T09:30:18.141Z,20.77
2018-10-11T09:32:45.648Z,24.40
2018-10-11T09:35:13.167Z,24.67
2018-10-11T09:37:40.573Z,18.07
2018-10-11T09:40:08.570Z,21.07
2018-10-11T09:42:35.974Z,24.17
2018-10-11T09:45:03.453Z,20.67
2018-10-11T09:47:30.785Z,30.77
2018-10-11T09:49:58.172Z,25.03
2018-10-11T09:52:25.528Z,19.80
2018-10-11T09:54:52.977Z,24.53
2018-10-11T09:57:23.314Z,46.57
2018-10-11T09:59:50.689Z,26.63
2018-10-11T10:02:18.021Z,19.10
2018-10-11T10:04:47.357Z,27.30
2018-10-11T10:07:14.726Z,23.03
2018-10-11T10:09:43.051Z,20.33
2018-10-11T10:12:11.028Z,25.90
2018-10-11T10:14:38.713Z,26.93
2018-10-11T10:17:06.570Z,22.47
2018-10-11T10:19:33.916Z,29.40
2018-10-11T10:22:01.382Z,31.23
2018-10-11T10:24:29.086Z,27.50
2018-10-11T10:26:56.889Z,21.27
2018-10-11T10:29:24.203Z,22.63
2018-10-11T10:31:51.614Z,25.77
2018-10-11T10:34:18.960Z,25.07
2018-10-11T10:36:46.329Z,26.13
2018-10-11T10:39:13.710Z,20.20
2018-10-11T10:41:41.102Z,25.63
2018-10-11T10:44:08.459Z,24.77
2018-10-11T10:46:36.834Z,19.87
2018-10-11T10:49:04.189Z,27.80
2018-10-11T10:51:31.977Z,22.47
2018-10-11T10:53:59.335Z,22.90
2018-10-11T10:56:26.692Z,21.27
2018-10-11T10:58:54.749Z,21.57
2018-10-11T11:01:23.100Z,26.20
2018-10-11T11:03:50.507Z,26.03
2018-10-11T11:06:18.861Z,26.27
2018-10-11T11:08:46.539Z,20.90
2018-10-11T11:11:14.243Z,20.60
2018-10-11T11:13:41.854Z,24.20
2018-10-11T11:16:10.660Z,21.47
2018-10-11T11:18:37.997Z,22.80
2018-10-11T11:21:05.494Z,21.07
2018-10-11T11:23:32.867Z,24.53
2018-10-11T11:26:00.777Z,23.70
2018-10-11T11:28:28.132Z,21.40
2018-10-11T11:30:55.523Z,19.50
2018-10-11T11:33:23.011Z,21.43
2018-10-11T11:35:50.333Z,22.90
2018-10-11T11:38:17.706Z,24.10
2018-10-11T11:40:45.087Z,21.60
2018-10-11T11:43:12.540Z,20.67
2018-10-11T11:45:39.928Z,21.90
2018-10-11T11:48:07.587Z,20.30
2018-10-11T11:50:35.034Z,20.77
2018-10-11T11:53:02.337Z,21.47
2018-10-11T11:55:29.806Z,21.73
2018-10-11T11:57:57.236Z,22.60
2018-10-11T12:00:26.938Z,26.47
2018-10-11T12:02:54.677Z,22.33
2018-10-11T12:05:22.102Z,22.53
2018-10-11T12:07:49.470Z,23.20
2018-10-11T12:10:16.983Z,20.30
2018-10-11T12:13:05.027Z,23.47
2018-10-11T12:15:33.058Z,21.63
2018-10-11T12:18:01.660Z,18.50
2018-10-11T12:20:30.374Z,18.00
2018-10-11T12:22:58.780Z,16.57
2018-10-11T12:25:26.546Z,20.00
2018-10-11T12:27:53.906Z,18.67
2018-10-11T12:30:21.292Z,20.37
2018-10-11T12:32:48.884Z,19.70
2018-10-11T12:35:17.587Z,19.63
2018-10-11T12:37:45.170Z,18.53
2018-10-11T12:40:12.586Z,18.37
2018-10-11T12:42:40.357Z,16.60
2018-10-11T12:45:08.386Z,16.93
2018-10-11T12:47:35.754Z,14.93
2018-10-11T12:50:03.320Z,15.47
2018-10-11T12:52:30.649Z,15.37
2018-10-11T12:54:57.986Z,17.23
2018-10-11T12:57:25.407Z,21.60
2018-10-11T12:59:52.766Z,19.97
2018-10-11T13:02:20.188Z,19.13
2018-10-11T13:04:47.902Z,17.13
2018-10-11T13:07:15.657Z,19.27
2018-10-11T13:09:43.026Z,17.93
2018-10-11T13:12:10.366Z,16.47
2018-10-11T13:14:37.804Z,16.60
2018-10-11T13:17:05.240Z,18.80
2018-10-11T13:19:32.941Z,17.00
2018-10-11T13:22:00.395Z,17.03
2018-10-11T13:24:27.767Z,15.73
2018-10-11T13:26:55.228Z,15.57
2018-10-11T13:29:22.617Z,15.50
2018-10-11T13:31:50.048Z,15.60
2018-10-11T13:34:17.431Z,20.20
2018-10-11T13:36:45.555Z,18.37
2018-10-11T13:39:12.886Z,14.57
2018-10-11T13:41:40.616Z,17.07
2018-10-11T13:44:08.030Z,17.13
2018-10-11T13:46:35.465Z,17.30
2018-10-11T13:49:02.885Z,18.10
2018-10-11T13:51:30.594Z,17.13
2018-10-11T13:53:58.679Z,18.67
2018-10-11T13:56:25.740Z,18.50
2018-10-11T13:58:53.214Z,18.13
2018-10-11T14:01:20.501Z,15.80
2018-10-11T14:03:47.890Z,15.20
2018-10-11T14:06:16.055Z,15.27
2018-10-11T14:08:43.411Z,15.00
2018-10-11T14:11:10.774Z,14.37
2018-10-11T14:13:38.996Z,15.77
2018-10-11T14:16:06.442Z,13.20
2018-10-11T14:18:33.801Z,14.20
2018-10-11T14:21:01.133Z,15.00
2018-10-11T14:23:28.548Z,14.20
2018-10-11T14:25:55.964Z,13.43
2018-10-11T14:28:23.307Z,14.20
2018-10-11T14:30:50.652Z,14.47
2018-10-11T14:33:18.090Z,14.43
2018-10-11T14:35:45.463Z,13.10
2018-10-11T14:38:13.261Z,13.50
2018-10-11T14:40:40.619Z,12.77
2018-10-11T14:43:07.986Z,13.50
2018-10-11T14:45:35.372Z,13.27
2018-10-11T14:48:02.859Z,12.40
2018-10-11T14:50:30.507Z,14.03
2018-10-11T14:52:57.907Z,12.00
2018-10-11T14:55:25.495Z,13.53
2018-10-11T14:57:52.901Z,12.87
2018-10-11T15:00:20.352Z,12.87
2018-10-11T15:02:47.741Z,12.80
2018-10-11T15:05:15.269Z,14.33
2018-10-11T15:07:42.617Z,12.87
2018-10-11T15:10:10.046Z,11.57
2018-10-11T15:12:37.361Z,11.00
2018-10-11T15:15:04.896Z,12.47
2018-10-11T15:17:32.738Z,12.37
2018-10-11T15:20:00.201Z,11.90
2018-10-11T15:22:27.556Z,11.40
2018-10-11T15:24:54.939Z,11.27
2018-10-11T15:27:22.481Z,11.47
2018-10-11T15:29:49.930Z,12.57
2018-10-11T15:32:17.256Z,13.10
2018-10-11T15:34:44.921Z,11.40
2018-10-11T15:37:12.631Z,15.37
2018-10-11T15:39:39.962Z,11.53
2018-10-11T15:42:07.344Z,11.83
2018-10-11T15:44:34.727Z,12.10
2018-10-11T15:47:02.155Z,11.60
2018-10-11T15:49:29.488Z,11.60
2018-10-11T15:51:57.429Z,11.73
2018-10-11T15:54:24.865Z,12.03
2018-10-11T15:56:52.171Z,12.00
2018-10-11T15:59:19.546Z,11.40
2018-10-11T16:01:46.978Z,11.03
2018-10-11T16:04:14.271Z,10.67
2018-10-11T16:06:41.570Z,11.30
2018-10-11T16:09:09.338Z,10.70
2018-10-11T16:11:36.564Z,12.07
2018-10-11T16:14:03.980Z,12.53
2018-10-11T16:16:31.357Z,15.00
2018-10-11T16:18:58.703Z,11.50
2018-10-11T16:21:26.152Z,12.10
2018-10-11T16:23:53.489Z,13.40
2018-10-11T16:26:21.256Z,13.97
2018-10-11T16:28:49.298Z,12.67
2018-10-11T16:31:16.882Z,12.93
2018-10-11T16:33:46.149Z,14.03
2018-10-11T16:36:13.715Z,13.00
2018-10-11T16:38:41.062Z,13.40
2018-10-11T16:41:08.813Z,13.73
2018-10-11T16:43:36.137Z,13.20
2018-10-11T16:46:03.536Z,13.83
2018-10-11T16:48:30.870Z,13.60
2018-10-11T16:50:59.501Z,13.37
2018-10-11T16:53:27.060Z,15.10
2018-10-11T16:55:54.430Z,14.07
2018-10-11T16:58:21.791Z,13.97
2018-10-11T17:00:49.665Z,14.33
2018-10-11T17:03:17.286Z,14.37
2018-10-11T17:05:44.846Z,14.07
2018-10-11T17:08:12.299Z,12.10
2018-10-11T17:10:39.817Z,13.33
2018-10-11T17:13:07.282Z,13.77
2018-10-11T17:15:35.024Z,13.53
2018-10-11T17:18:02.523Z,13.70
2018-10-11T17:20:29.937Z,12.27
2018-10-11T17:22:57.259Z,14.17
2018-10-11T17:25:24.780Z,12.27
2018-10-11T17:27:52.531Z,14.83
2018-10-11T17:30:20.015Z,14.60
2018-10-11T17:32:47.466Z,14.23
2018-10-11T17:35:15.235Z,15.27
2018-10-11T17:37:42.594Z,13.70
2018-10-11T17:40:10.722Z,13.63
2018-10-11T17:42:38.091Z,13.83
2018-10-11T17:45:06.170Z,14.90
2018-10-11T17:47:33.579Z,15.33
2018-10-11T17:50:01.014Z,18.67
2018-10-11T17:52:28.360Z,15.20
2018-10-11T17:54:57.269Z,17.80
2018-10-11T17:57:25.188Z,20.13
2018-10-11T17:59:52.774Z,17.47
2018-10-11T18:02:21.239Z,24.17
2018-10-11T18:04:48.675Z,19.93
2018-10-11T18:07:16.234Z,18.20
2018-10-11T18:09:43.722Z,17.03
2018-10-11T18:12:11.221Z,15.03
2018-10-11T18:14:38.671Z,14.97
2018-10-11T18:17:07.169Z,15.60
2018-10-11T18:19:34.632Z,16.23
2018-10-11T18:22:02.049Z,15.33
2018-10-11T18:24:29.580Z,15.13
2018-10-11T18:26:56.925Z,16.80
2018-10-11T18:29:24.327Z,16.63
2018-10-11T18:31:51.744Z,14.80
2018-10-11T18:34:19.108Z,17.40
2018-10-11T18:36:46.425Z,15.77
2018-10-11T18:39:14.951Z,17.23
2018-10-11T18:41:42.680Z,18.30
2018-10-11T18:44:10.448Z,18.13
2018-10-11T18:46:37.877Z,18.60
2018-10-11T18:49:05.492Z,16.37
2018-10-11T18:51:33.038Z,16.17
2018-10-11T18:54:00.474Z,18.60
2018-10-11T18:56:28.003Z,25.83
2018-10-11T18:58:55.474Z,15.67
2018-10-11T19:01:22.925Z,19.47
2018-10-11T19:03:50.604Z,19.43
2018-10-11T19:06:18.307Z,16.50
2018-10-11T19:08:45.750Z,18.40
2018-10-11T19:11:13.330Z,17.70
2018-10-11T19:13:40.937Z,18.07
2018-10-11T19:16:08.441Z,17.10
2018-10-11T19:18:35.857Z,17.67
2018-10-11T19:21:03.343Z,23.40
2018-10-11T19:23:31.297Z,18.97
2018-10-11T19:25:58.739Z,23.03
2018-10-11T19:28:26.174Z,18.53
2018-10-11T19:30:53.782Z,19.53
2018-10-11T19:33:21.229Z,16.87
2018-10-11T19:35:49.142Z,17.40
2018-10-11T19:38:16.588Z,15.57
2018-10-11T19:40:45.144Z,16.90
2018-10-11T19:43:12.583Z,17.87
2018-10-11T19:45:40.492Z,17.03
2018-10-11T19:48:07.950Z,18.23
2018-10-11T19:50:35.730Z,14.87
2018-10-11T19:53:03.259Z,15.07
2018-10-11T19:55:30.789Z,14.63
2018-10-11T19:57:58.398Z,15.13
2018-10-11T20:00:25.919Z,14.30
2018-10-11T20:02:53.387Z,15.57
2018-10-11T20:05:21.081Z,15.90
2018-10-11T20:07:48.631Z,16.07
2018-10-11T20:10:16.119Z,14.30
2018-10-11T20:12:43.540Z,14.60
2018-10-11T20:15:11.991Z,13.77
2018-10-11T20:17:40.024Z,14.13
2018-10-11T20:20:07.466Z,15.10
2018-10-11T20:22:34.967Z,16.80
2018-10-11T20:25:02.442Z,15.00
2018-10-11T20:27:29.865Z,13.97
2018-10-11T20:29:57.360Z,14.60
2018-10-11T20:32:24.801Z,15.40
2018-10-11T20:34:52.178Z,15.93
2018-10-11T20:37:19.605Z,14.03
2018-10-11T20:39:47.000Z,17.00
2018-10-11T20:42:14.411Z,16.47
2018-10-11T20:44:41.814Z,16.00
2018-10-11T20:47:10.192Z,18.13
2018-10-11T20:49:37.740Z,15.87
2018-10-11T20:52:05.455Z,21.63
2018-10-11T20:54:32.860Z,17.17
2018-10-11T20:57:00.265Z,15.43
2018-10-11T20:59:27.690Z,15.90
2018-10-11T21:01:55.224Z,14.73
2018-10-11T21:04:22.620Z,15.73
2018-10-11T21:06:50.068Z,15.67
2018-10-11T21:09:17.540Z,16.40
2018-10-11T21:11:44.926Z,16.27
2018-10-11T21:14:12.367Z,16.70
2018-10-11T21:16:39.733Z,16.87
2018-10-11T21:19:07.755Z,17.10
2018-10-11T21:21:35.411Z,15.63
2018-10-11T21:24:02.959Z,15.20
2018-10-11T21:26:30.570Z,16.83
2018-10-11T21:28:57.977Z,16.57
2018-10-11T21:31:25.432Z,15.93
2018-10-11T21:33:53.940Z,16.10
2018-10-11T21:36:21.438Z,17.33
2018-10-11T21:38:49.066Z,15.83
2018-10-11T21:41:16.437Z,16.47
2018-10-11T21:43:43.832Z,17.57
2018-10-11T21:46:11.577Z,17.03
2018-10-11T21:48:38.968Z,15.60
2018-10-11T21:51:06.469Z,18.07
2018-10-11T21:53:33.837Z,16.00
2018-10-11T21:56:01.277Z,17.23
2018-10-11T21:58:29.139Z,18.77
2018-10-11T22:01:01.688Z,17.90
2018-10-11T22:03:29.091Z,17.63
2018-10-11T22:05:56.595Z,16.43
2018-10-11T22:08:24.034Z,17.67
2018-10-11T22:10:51.395Z,16.17
2018-10-11T22:13:18.822Z,16.67
2018-10-11T22:15:46.232Z,18.00
2018-10-11T22:18:13.598Z,17.90
2018-10-11T22:20:40.988Z,18.07
2018-10-11T22:23:08.461Z,18.47
2018-10-11T22:25:35.927Z,19.70
2018-10-11T22:28:03.363Z,15.93
2018-10-11T22:30:30.777Z,16.93
2018-10-11T22:32:59.369Z,17.23
2018-10-11T22:35:26.758Z,17.43
2018-10-11T22:37:55.511Z,19.37
2018-10-11T22:40:23.059Z,18.50
2018-10-11T22:42:50.531Z,21.13
2018-10-11T22:45:18.068Z,20.40
2018-10-11T22:47:45.679Z,19.37
2018-10-11T22:50:13.220Z,19.70
2018-10-11T22:52:40.713Z,18.40
2018-10-11T22:55:08.565Z,19.13
2018-10-11T22:57:35.973Z,20.70
2018-10-11T23:00:03.540Z,20.17
2018-10-11T23:02:30.976Z,22.20
2018-10-11T23:04:58.460Z,22.20
2018-10-11T23:07:25.882Z,19.53
2018-10-11T23:09:53.458Z,20.50
2018-10-11T23:12:20.811Z,21.93
2018-10-11T23:14:48.328Z,22.40
2018-10-11T23:17:15.719Z,22.20
2018-10-11T23:19:43.224Z,25.77
2018-10-11T23:22:11.068Z,21.97
2018-10-11T23:24:38.555Z,23.70
2018-10-11T23:27:06.078Z,23.30
2018-10-11T23:29:33.984Z,24.23
2018-10-11T23:32:04.167Z,22.10
2018-10-11T23:34:31.737Z,25.30
2018-10-11T23:36:59.903Z,27.33
2018-10-11T23:39:40.955Z,24.50
2018-10-11T23:42:08.265Z,23.70
2018-10-11T23:44:35.597Z,21.77
2018-10-11T23:47:02.952Z,23.20
2018-10-11T23:49:30.332Z,22.13
2018-10-11T23:51:57.715Z,23.70
2018-10-11T23:54:25.098Z,22.30
2018-10-11T23:56:52.495Z,21.60
2018-10-11T23:59:19.810Z,23.73
